Latest Weather Observations for Parawa West

IDS60801

Issued at 8:01 am CST Sunday 31 May 2020 (issued every 10 minutes, with the page automatically refreshed every 10 minutes)

About weather observations | Map of weather stations | Latest weather observations for SA | Other Formats
Station Details ID: 023875 Name: SECOND VALLEY FOREST AWS Lat: -35.57 Lon: 138.29 Height: 341.0 m
Data from the previous 72 hours. | See also: Recent months at Parawa West
Date/Time
CST
Temp
°C
App
Temp
°C
Dew
Point
°C
Rel
Hum
%
Delta-T
°C
Wind Press
QNH
hPa
Press
MSL
hPa
Rain since
9am
mm
Dir  Spd
km/h
Gust
km/h
Spd
kts
Gust
kts
31/08:00am 7.8 5.8 6.4 91 0.7 NW 6 9 3 5 1013.6 1013.5 10.6
31/07:30am 7.7 5.6 6.5 92 0.6 WNW 7 9 4 5 1013.4 1013.3 10.6
31/07:00am 7.6 5.1 6.5 93 0.5 WNW 9 15 5 8 1013.3 1013.2 10.6
31/06:30am 7.4 5.0 6.8 96 0.3 W 9 13 5 7 1012.9 1012.7 10.6
31/06:00am 7.8 5.9 7.4 97 0.2 NW 7 9 4 5 1013.0 1012.9 10.4
31/05:30am 8.1 5.9 7.7 97 0.2 WNW 9 13 5 7 1013.0 1012.9 10.4
31/05:00am 8.6 6.1 8.0 96 0.3 WNW 11 15 6 8 1012.8 1012.6 10.4
31/04:30am 9.0 7.4 8.6 97 0.2 NW 7 9 4 5 1012.6 1012.4 9.2
31/04:00am 8.4 6.6 7.8 96 0.3 WNW 7 11 4 6 1012.7 1012.5 9.2
31/03:30am 8.5 6.3 7.9 96 0.3 NW 9 11 5 6 1012.7 1012.5 9.2
31/03:00am 8.6 6.4 7.8 95 0.4 WNW 9 13 5 7 1012.7 1012.5 9.2
31/02:30am 8.8 6.6 8.0 95 0.4 WNW 9 15 5 8 1012.8 1012.6 9.0
31/02:00am 8.9 5.2 8.0 94 0.4 W 17 28 9 15 1013.0 1012.9 9.0
31/01:30am 9.3 6.3 7.7 90 0.8 W 13 20 7 11 1012.6 1012.4 8.6
31/01:00am 9.9 7.5 8.7 92 0.6 WNW 11 19 6 10 1012.8 1012.6 8.4
31/12:30am 9.5 6.6 8.1 91 0.7 WNW 13 19 7 10 1012.5 1012.3 7.8
31/12:00am 9.5 7.0 8.1 91 0.7 WNW 11 13 6 7 1012.8 1012.6 7.8
 
Date/Time
CST
Temp
°C
App
Temp
°C
Dew
Point
°C
Rel
Hum
%
Delta-T
°C
Wind Press
QNH
hPa
Press
MSL
hPa
Rain since
9am
mm
Dir  Spd
km/h
Gust
km/h
Spd
kts
Gust
kts
30/11:30pm 9.3 7.1 7.9 91 0.7 WNW 9 17 5 9 1012.8 1012.6 7.8
30/11:00pm 9.8 7.0 8.4 91 0.7 W 13 19 7 10 1012.6 1012.4 7.6
30/10:30pm 9.9 6.8 8.8 93 0.6 W 15 22 8 12 1012.3 1012.1 7.6
30/10:00pm 9.9 6.9 9.1 95 0.4 W 15 24 8 13 1012.2 1012.0 7.6
30/09:30pm 10.1 6.9 9.8 98 0.2 W 17 24 9 13 1012.0 1011.8 7.6
30/09:00pm 10.7 7.3 10.5 99 0.1 W 19 26 10 14 1011.6 1011.4 7.6
30/08:30pm 10.8 7.8 10.6 99 0.1 WNW 17 24 9 13 1011.3 1011.1 7.2
30/08:00pm 11.0 7.1 10.8 99 0.1 NW 22 39 12 21 1010.7 1010.6 7.2
30/07:30pm 11.3 6.0 11.1 99 0.1 NW 30 50 16 27 1010.2 1010.0 7.0
30/07:00pm 11.3 5.9 10.8 97 0.3 NNW 30 50 16 27 1010.0 1009.8 5.0
30/06:41pm 11.4 6.0 10.8 96 0.3 NNW 30 48 16 26 1009.8 1009.6 2.8
30/06:30pm 11.4 6.7 10.6 95 0.4 NNW 26 44 14 24 1009.6 1009.4 2.6
30/06:00pm 11.9 4.9 10.1 89 0.9 NW 37 57 20 31 1009.5 1009.3 2.2
30/05:30pm 12.8 7.0 9.3 79 1.8 NNW 30 52 16 28 1009.0 1008.8 2.0
30/05:26pm 12.8 7.3 9.3 79 1.8 NW 28 48 15 26 1009.0 1008.8 2.0
30/05:00pm 12.7 8.4 9.3 80 1.8 NNW 22 35 12 19 1008.8 1008.6 2.0
30/04:30pm 12.7 9.0 9.5 81 1.7 NW 19 32 10 17 1009.0 1008.8 2.0
30/04:00pm 12.3 10.1 9.5 83 1.4 NW 11 20 6 11 1008.5 1008.3 2.0
30/03:30pm 11.8 10.4 9.4 85 1.2 WNW 7 19 4 10 1007.9 1007.7 1.0
30/03:00pm 11.3 9.8 9.2 87 1.1 WNW 7 17 4 9 1008.6 1008.4 0.8
30/02:30pm 12.7 10.6 8.4 75 2.2 N 9 20 5 11 1008.9 1008.7 0.0
30/02:00pm 13.1 11.4 8.2 72 2.5 NNE 7 19 4 10 1009.0 1008.8 0.0
30/01:30pm 13.2 10.9 7.6 69 2.8 NNW 9 20 5 11 1009.4 1009.2 0.0
30/01:00pm 13.1 11.3 8.0 71 2.6 NNE 7 32 4 17 1009.8 1009.6 0.0
30/12:30pm 12.9 10.0 8.2 73 2.4 NW 13 30 7 16 1010.4 1010.2 0.0
30/12:00pm 12.7 10.2 8.0 73 2.4 NW 11 20 6 11 1010.5 1010.4 0.0
30/11:30am 13.2 9.7 7.2 67 3.0 NW 15 37 8 20 1011.6 1011.4 0.0
30/11:00am 12.6 9.5 7.3 70 2.6 NW 13 37 7 20 1012.2 1012.0 0.0
30/10:30am 13.5 10.5 7.5 67 3.0 NW 13 32 7 17 1012.3 1012.1 0.0
30/10:00am 12.9 9.9 7.8 71 2.6 NW 13 32 7 17 1013.0 1012.9 0.0
30/09:30am 12.2 9.5 7.3 72 2.4 NW 11 28 6 15 1013.3 1013.2 0.0
30/09:00am 11.8 9.3 6.7 71 2.5 NW 9 24 5 13 1013.3 1013.2 0.0
30/08:30am 11.6 9.4 6.3 70 2.5 WSW 7 15 4 8 1013.7 1013.6 0.0
30/08:00am 11.1 8.8 5.8 70 2.5 WNW 7 22 4 12 1014.6 1014.4 0.0
30/07:30am 11.2 8.5 5.7 69 2.6 NW 9 20 5 11 1014.8 1014.6 0.0
30/07:00am 11.0 8.8 6.4 73 2.2 WSW 7 17 4 9 1014.8 1014.6 0.0
30/06:30am 10.9 8.8 6.6 75 2.1 W 7 19 4 10 1015.0 1014.8 0.0
30/06:00am 10.4 8.3 6.7 78 1.8 WSW 7 24 4 13 1015.2 1015.0 0.0
30/05:30am 10.3 8.2 6.5 77 1.8 N 7 13 4 7 1015.6 1015.5 0.0
30/05:00am 10.3 8.4 6.6 78 1.8 WNW 6 15 3 8 1015.7 1015.6 0.0
30/04:30am 10.2 8.3 6.9 80 1.6 NW 6 11 3 6 1016.0 1015.9 0.0
30/04:00am 10.5 8.6 6.8 78 1.8 NNW 6 11 3 6 1016.3 1016.2 0.0
30/03:30am 10.8 8.8 7.1 78 1.8 NW 7 20 4 11 1016.7 1016.6 0.0
30/03:00am 11.2 8.4 7.1 76 2.0 NW 11 24 6 13 1016.8 1016.7 0.0
30/02:30am 11.3 8.4 6.4 72 2.3 NW 11 26 6 14 1016.9 1016.8 0.0
30/02:00am 11.2 8.6 6.3 72 2.3 NW 9 30 5 16 1017.0 1016.9 0.0
30/01:30am 11.5 9.0 6.6 72 2.4 NW 9 20 5 11 1017.3 1017.1 0.0
30/01:00am 11.3 8.7 6.2 71 2.4 NW 9 15 5 8 1017.6 1017.4 0.0
30/12:30am 11.3 9.3 6.4 72 2.3 NW 6 9 3 5 1018.3 1018.2 0.0
30/12:00am 11.3 9.1 6.4 72 2.3 NW 7 17 4 9 1018.5 1018.4 0.0
 
Date/Time
CST
Temp
°C
App
Temp
°C
Dew
Point
°C
Rel
Hum
%
Delta-T
°C
Wind Press
QNH
hPa
Press
MSL
hPa
Rain since
9am
mm
Dir  Spd
km/h
Gust
km/h
Spd
kts
Gust
kts
29/11:30pm 12.0 9.6 5.4 64 3.1 NW 7 24 4 13 1018.9 1018.8 0.0
29/11:00pm 11.9 9.6 4.6 61 3.4 SE 6 13 3 7 1019.0 1018.9 0.0
29/10:30pm 11.6 9.3 4.6 62 3.2 N 6 19 3 10 1019.3 1019.2 0.0
29/10:00pm 11.8 9.5 4.8 62 3.3 NE 6 15 3 8 1019.7 1019.6 0.0
29/09:30pm 11.8 10.0 5.2 64 3.1 ESE 4 11 2 6 1019.9 1019.8 0.0
29/09:00pm 12.0 9.8 5.4 64 3.1 W 6 9 3 5 1020.2 1020.1 0.0
29/08:30pm 11.9 10.1 5.3 64 3.1 SE 4 11 2 6 1020.5 1020.3 0.0
29/08:00pm 11.8 10.0 5.4 65 3.0 ESE 4 6 2 3 1020.8 1020.7 0.0
29/07:30pm 11.9 10.4 6.6 70 2.6 W 4 7 2 4 1020.8 1020.7 0.0
29/07:00pm 12.2 10.7 6.7 69 2.7 N 4 11 2 6 1020.7 1020.6 0.0
29/06:30pm 12.3 10.8 6.8 69 2.7 SE 4 9 2 5 1020.7 1020.6 0.0
29/06:00pm 12.3 10.9 7.2 71 2.5 NE 4 6 2 3 1020.9 1020.8 0.0
29/05:30pm 12.4 11.0 7.1 70 2.6 SE 4 7 2 4 1021.2 1021.1 0.0
29/05:00pm 12.8 11.4 7.3 69 2.7 ESE 4 9 2 5 1021.1 1021.0 0.0
29/04:30pm 13.7 12.5 7.9 68 2.9 ENE 4 9 2 5 1021.2 1021.1 0.0
29/04:00pm 14.0 12.4 8.0 67 3.0 WNW 6 13 3 7 1021.2 1021.1 0.0
29/03:30pm 14.6 12.9 8.5 67 3.1 NW 7 19 4 10 1021.2 1021.1 0.0
29/03:00pm 14.9 12.9 8.8 67 3.1 NW 9 20 5 11 1021.3 1021.2 0.0
29/02:30pm 14.7 12.9 9.3 70 2.8 NW 9 19 5 10 1021.3 1021.2 0.0
29/02:00pm 14.7 13.4 10.1 74 2.4 WNW 7 15 4 8 1021.7 1021.6 0.0
29/01:30pm 14.3 12.7 10.1 76 2.2 NNW 9 19 5 10 1022.2 1022.1 0.0
29/01:00pm 13.9 11.7 9.5 75 2.3 NW 11 26 6 14 1022.4 1022.3 0.0
29/12:30pm 13.7 11.1 9.4 75 2.2 NW 13 22 7 12 1022.8 1022.7 0.0
29/12:00pm 13.7 12.3 9.6 76 2.1 NNW 7 15 4 8 1023.2 1023.2 0.0
29/11:30am 14.0 13.0 10.2 78 2.0 WNW 6 17 3 9 1023.6 1023.5 0.0
29/11:00am 13.1 11.7 9.4 78 1.9 NW 7 19 4 10 1023.9 1023.8 0.0
29/10:30am 12.6 11.2 9.6 82 1.5 NNW 7 17 4 9 1024.3 1024.2 0.0
29/10:00am 12.2 10.9 9.8 85 1.2 NW 7 15 4 8 1024.5 1024.4 0.0
29/09:30am 11.3 10.1 9.4 88 1.0 N 6 15 3 8 1024.3 1024.2 0.0
29/09:00am 10.4 9.5 9.2 92 0.6 W 4 7 2 4 1024.1 1024.0 0.2
29/08:30am 9.5 8.0 8.6 94 0.4 SE 6 9 3 5 1023.9 1023.8 0.2
29/08:00am 8.6 7.4 8.0 96 0.3 SSE 4 6 2 3 1023.8 1023.7 0.2
29/07:30am 8.1 6.8 7.7 97 0.2 N 4 6 2 3 1023.9 1023.8 0.2
29/07:00am 7.6 6.5 7.0 96 0.3 SW 2 9 1 5 1023.8 1023.7 0.2
29/06:30am 7.8 7.2 7.2 96 0.3 CALM 0 2 0 1 1024.0 1023.9 0.2
29/06:00am 8.4 7.5 7.8 96 0.3 SSW 2 6 1 3 1023.8 1023.7 0.2
29/05:30am 8.9 8.2 8.5 97 0.2 N 2 6 1 3 1023.8 1023.7 0.2
29/05:00am 8.9 7.8 8.5 97 0.2 N 4 6 2 3 1023.6 1023.5 0.2
29/04:30am 9.0 7.9 8.6 97 0.2 NW 4 7 2 4 1023.3 1023.3 0.2
29/04:00am 9.4 8.4 8.9 97 0.2 NNW 4 7 2 4 1023.2 1023.2 0.2
29/03:30am 9.1 8.0 8.6 97 0.2 N 4 6 2 3 1023.1 1023.1 0.2
29/03:00am 9.1 8.4 8.6 97 0.2 N 2 6 1 3 1023.2 1023.2 0.2
29/02:30am 9.1 8.8 8.6 97 0.2 CALM 0 2 0 1 1023.6 1023.5 0.2
29/02:00am 9.2 8.9 8.7 97 0.2 CALM 0 2 0 1 1023.8 1023.7 0.2
29/01:30am 9.2 8.5 8.7 97 0.2 NNW 2 6 1 3 1023.5 1023.4 0.2
29/01:00am 9.3 8.7 8.8 97 0.2 NNW 2 6 1 3 1023.3 1023.3 0.2
29/12:30am 8.8 7.7 8.4 97 0.2 NNW 4 7 2 4 1023.6 1023.5 0.2
29/12:00am 8.1 7.1 7.3 95 0.4 NNW 2 4 1 2 1023.6 1023.5 0.2
 
Date/Time
CST
Temp
°C
App
Temp
°C
Dew
Point
°C
Rel
Hum
%
Delta-T
°C
Wind Press
QNH
hPa
Press
MSL
hPa
Rain since
9am
mm
Dir  Spd
km/h
Gust
km/h
Spd
kts
Gust
kts
28/11:30pm 8.5 8.0 7.7 95 0.4 CALM 0 0 0 0 1023.8 1023.7 0.2
28/11:00pm 8.9 8.4 8.0 94 0.4 CALM 0 0 0 0 1024.2 1024.1 0.2
28/10:30pm 9.6 8.9 8.7 94 0.4 NNW 2 4 1 2 1024.4 1024.3 0.2
28/10:00pm 9.6 9.3 8.5 93 0.5 CALM 0 0 0 0 1024.4 1024.3 0.2
28/09:30pm 9.6 8.9 8.5 93 0.5 NNW 2 6 1 3 1024.5 1024.4 0.2
28/09:00pm 9.9 9.3 8.8 93 0.5 NNW 2 6 1 3 1024.3 1024.2 0.2
28/08:30pm 10.8 10.0 9.6 92 0.6 NNW 4 6 2 3 1024.2 1024.1 0.2
28/08:00pm 11.5 10.3 10.2 92 0.7 NNW 7 9 4 5 1024.1 1024.0 0.2
28/07:30pm 11.4 10.2 10.3 93 0.6 NNW 7 15 4 8 1023.8 1023.7 0.2
28/07:00pm 11.4 10.8 10.5 94 0.5 NNW 4 6 2 3 1023.8 1023.7 0.2
28/06:30pm 11.5 10.9 10.4 93 0.6 NNW 4 6 2 3 1023.7 1023.6 0.2
28/06:00pm 11.7 11.5 10.3 91 0.7 NNW 2 6 1 3 1023.8 1023.7 0.0
28/05:30pm 11.7 11.4 10.1 90 0.8 NNW 2 6 1 3 1023.3 1023.3 0.0
28/05:00pm 11.9 10.8 10.1 89 0.9 NNW 6 9 3 5 1023.0 1023.0 0.0
28/04:30pm 12.1 10.7 9.7 85 1.2 NW 7 13 4 7 1022.7 1022.6 0.0
28/04:00pm 12.9 11.7 10.3 84 1.4 NNW 7 13 4 7 1022.5 1022.4 0.0
28/03:30pm 12.8 10.7 9.8 82 1.6 NW 11 17 6 9 1022.3 1022.2 0.0
28/03:00pm 12.7 10.7 10.2 85 1.3 NNW 11 19 6 10 1022.0 1021.9 0.0
28/02:30pm 13.7 10.9 9.9 78 2.0 NW 15 24 8 13 1022.0 1021.9 0.0
28/02:00pm 13.4 10.2 8.5 72 2.5 NW 15 22 8 12 1021.8 1021.7 0.0
28/01:30pm 13.3 9.3 8.2 71 2.6 NW 19 28 10 15 1022.0 1021.9 0.0
28/01:00pm 13.8 10.7 10.2 79 1.9 NW 17 28 9 15 1022.2 1022.1 0.0
28/12:30pm 13.1 9.7 10.5 84 1.4 NW 19 32 10 17 1022.4 1022.3 0.0
28/12:00pm 12.9 9.2 9.5 80 1.8 WNW 19 32 10 17 1022.7 1022.6 0.0
28/11:30am 12.5 8.4 10.2 86 1.2 NW 22 30 12 16 1022.8 1022.7 0.0
28/11:00am 12.2 8.7 10.3 88 1.0 NW 19 30 10 16 1022.9 1022.8 0.0
28/10:30am 11.6 8.2 10.7 94 0.5 NW 19 28 10 15 1023.0 1023.0 0.0
28/10:00am 11.6 8.7 11.1 97 0.3 NNW 17 26 9 14 1022.7 1022.6 0.0
28/09:30am 11.2 9.1 11.0 99 0.1 NW 13 24 7 13 1022.5 1022.4 0.0
28/09:00am 11.1 8.6 10.9 99 0.1 NW 15 28 8 15 1022.4 1022.3 6.6
28/08:30am 11.2 9.1 11.2 100 0.0 NW 13 22 7 12 1022.1 1022.0 6.4

Other formats

Comma delimited format used in spreadsheet applications
http://www.bom.gov.au/fwo/IDS60801/IDS60801.94811.axf

JavaScript Object Notation format (JSON) in row-major order
http://www.bom.gov.au/fwo/IDS60801/IDS60801.94811.json

Data quality

Most of these data are generated automatically and are frequently updated. Quality checks on data are not normally performed. It is possible for incorrect values to appear. Refer to information at About Latest Weather Observations and please check the disclaimer before using these data.